createdAt,value
2023-04-22T00:02:05.260Z,86.00
2023-04-22T00:04:34.208Z,86.10
2023-04-22T00:07:01.765Z,86.00
2023-04-22T00:09:29.174Z,86.10
2023-04-22T00:11:56.737Z,86.20
2023-04-22T00:14:24.105Z,86.20
2023-04-22T00:16:51.451Z,86.30
2023-04-22T00:19:18.728Z,86.30
2023-04-22T00:21:45.979Z,86.40
2023-04-22T00:24:13.382Z,86.40
2023-04-22T00:26:40.823Z,86.50
2023-04-22T00:29:08.190Z,86.50
2023-04-22T00:31:35.587Z,86.50
2023-04-22T00:34:03.287Z,86.30
2023-04-22T00:36:31.465Z,86.40
2023-04-22T00:38:58.853Z,86.50
2023-04-22T00:41:27.771Z,86.60
2023-04-22T00:43:56.144Z,86.70
2023-04-22T00:46:24.581Z,86.80
2023-04-22T00:48:52.562Z,87.60
2023-04-22T00:51:20.281Z,87.00
2023-04-22T00:53:47.847Z,87.20
2023-04-22T00:56:16.072Z,87.40
2023-04-22T00:58:44.576Z,87.50
2023-04-22T01:01:12.553Z,87.70
2023-04-22T01:03:41.160Z,87.90
2023-04-22T01:06:08.844Z,87.90
2023-04-22T01:08:36.888Z,87.70
2023-04-22T01:11:04.346Z,87.80
2023-04-22T01:13:32.586Z,87.80
2023-04-22T01:16:01.576Z,87.90
2023-04-22T01:18:29.134Z,87.90
2023-04-22T01:20:57.724Z,88.10
2023-04-22T01:23:25.402Z,88.20
2023-04-22T01:25:52.942Z,89.40
2023-04-22T01:28:20.597Z,89.50
2023-04-22T01:30:49.712Z,89.60
2023-04-22T01:33:17.452Z,89.80
2023-04-22T01:35:45.272Z,90.00
2023-04-22T01:38:13.218Z,90.00
2023-04-22T01:40:41.435Z,89.90
2023-04-22T01:43:09.100Z,90.00
2023-04-22T01:45:37.164Z,90.00
2023-04-22T01:48:07.049Z,90.10
2023-04-22T01:50:34.823Z,90.00
2023-04-22T01:53:02.584Z,90.00
2023-04-22T01:55:30.911Z,89.70
2023-04-22T01:57:58.208Z,89.60
2023-04-22T02:00:25.625Z,89.60
2023-04-22T02:02:53.031Z,89.60
2023-04-22T02:05:20.509Z,89.70
2023-04-22T02:07:51.339Z,90.00
2023-04-22T02:10:18.715Z,90.00
2023-04-22T02:12:46.079Z,90.10
2023-04-22T02:15:15.056Z,90.20
2023-04-22T02:17:43.597Z,90.20
2023-04-22T02:20:13.124Z,90.30
2023-04-22T02:22:42.885Z,90.20
2023-04-22T02:25:12.247Z,90.20
2023-04-22T02:27:39.814Z,90.20
2023-04-22T02:30:08.640Z,90.30
2023-04-22T02:32:38.895Z,90.60
2023-04-22T02:35:06.948Z,90.50
2023-04-22T02:37:34.273Z,90.60
2023-04-22T02:40:01.607Z,90.60
2023-04-22T02:42:30.450Z,90.60
2023-04-22T02:44:57.994Z,90.70
2023-04-22T02:47:25.476Z,90.40
2023-04-22T02:49:52.760Z,90.10
2023-04-22T02:52:20.908Z,90.10
2023-04-22T02:54:48.201Z,90.20
2023-04-22T02:57:15.937Z,90.10
2023-04-22T02:59:43.380Z,90.30
2023-04-22T03:02:12.538Z,90.40
2023-04-22T03:05:03.060Z,90.50
2023-04-22T03:07:31.527Z,90.50
2023-04-22T03:09:59.938Z,90.50
2023-04-22T03:12:27.611Z,90.30
2023-04-22T03:14:55.015Z,90.30
2023-04-22T03:17:26.150Z,90.30
2023-04-22T03:19:53.903Z,90.40
2023-04-22T03:22:22.187Z,90.50
2023-04-22T03:24:51.959Z,91.00
2023-04-22T03:27:19.436Z,90.80
2023-04-22T03:29:47.080Z,90.90
2023-04-22T03:32:14.406Z,91.00
2023-04-22T03:34:41.974Z,91.20
2023-04-22T03:37:10.990Z,91.50
2023-04-22T03:39:38.874Z,91.70
2023-04-22T03:42:08.502Z,91.80
2023-04-22T03:44:41.265Z,91.80
2023-04-22T03:47:08.906Z,91.90
2023-04-22T03:49:43.161Z,92.00
2023-04-22T03:52:10.767Z,92.10
2023-04-22T03:54:45.763Z,92.00
2023-04-22T03:57:13.964Z,91.80
2023-04-22T03:59:41.754Z,91.70
2023-04-22T04:02:11.173Z,92.00
2023-04-22T04:04:38.884Z,91.70
2023-04-22T04:07:08.173Z,91.80
2023-04-22T04:09:37.197Z,91.80
2023-04-22T04:12:04.853Z,92.00
2023-04-22T04:14:37.186Z,91.60
2023-04-22T04:17:09.374Z,91.30
2023-04-22T04:19:38.413Z,91.10
2023-04-22T04:22:07.038Z,91.40
2023-04-22T04:24:42.283Z,91.20
2023-04-22T04:27:16.552Z,91.30
2023-04-22T04:29:50.939Z,91.10
2023-04-22T04:32:28.882Z,90.20
2023-04-22T04:34:58.209Z,89.70
2023-04-22T04:37:26.391Z,89.10
2023-04-22T04:40:01.724Z,88.60
2023-04-22T04:42:42.555Z,87.70
2023-04-22T04:45:17.663Z,86.60
2023-04-22T04:47:46.477Z,85.60
2023-04-22T04:50:22.117Z,85.10
2023-04-22T04:52:52.768Z,85.20
2023-04-22T04:55:25.856Z,85.00
2023-04-22T04:57:54.028Z,85.00
2023-04-22T05:00:21.457Z,84.70
2023-04-22T05:02:49.626Z,84.20
2023-04-22T05:05:17.396Z,83.90
2023-04-22T05:07:44.714Z,83.70
2023-04-22T05:10:15.040Z,83.60
2023-04-22T05:12:44.128Z,83.20
2023-04-22T05:15:15.805Z,82.70
2023-04-22T05:17:43.696Z,82.50
2023-04-22T05:20:11.601Z,82.10
2023-04-22T05:22:43.453Z,81.70
2023-04-22T05:25:11.441Z,81.30
2023-04-22T05:27:44.440Z,81.20
2023-04-22T05:30:13.262Z,80.90
2023-04-22T05:32:40.919Z,80.60
2023-04-22T05:35:10.441Z,80.30
2023-04-22T05:37:38.454Z,79.80
2023-04-22T05:40:06.846Z,79.70
2023-04-22T05:42:35.061Z,79.40
2023-04-22T05:45:02.428Z,79.00
2023-04-22T05:47:30.455Z,78.70
2023-04-22T05:49:59.462Z,78.10
2023-04-22T05:52:38.489Z,77.70
2023-04-22T05:55:11.851Z,77.40
2023-04-22T05:57:39.164Z,76.70
2023-04-22T06:00:13.923Z,76.60
2023-04-22T06:02:44.097Z,76.20
2023-04-22T06:05:11.929Z,75.90
2023-04-22T06:07:40.352Z,75.40
2023-04-22T06:10:08.621Z,75.20
2023-04-22T06:12:36.296Z,75.10
2023-04-22T06:15:05.269Z,74.10
2023-04-22T06:17:32.887Z,74.10
2023-04-22T06:20:00.774Z,74.50
2023-04-22T06:22:28.226Z,73.40
2023-04-22T06:24:55.464Z,72.60
2023-04-22T06:27:22.944Z,72.30
2023-04-22T06:29:50.638Z,72.60
2023-04-22T06:32:18.165Z,72.80
2023-04-22T06:34:45.472Z,72.70
2023-04-22T06:37:12.931Z,72.70
2023-04-22T06:39:40.809Z,72.50
2023-04-22T06:42:46.451Z,72.60
2023-04-22T06:45:36.730Z,72.60
2023-04-22T06:48:18.294Z,72.80
2023-04-22T06:51:05.860Z,73.10
2023-04-22T06:53:33.473Z,73.60
2023-04-22T06:56:00.985Z,73.40
2023-04-22T06:58:28.458Z,74.10
2023-04-22T07:00:56.082Z,74.20
2023-04-22T07:03:23.824Z,74.40
2023-04-22T07:06:01.285Z,74.70
2023-04-22T07:08:30.935Z,74.90
2023-04-22T07:10:58.534Z,74.70
2023-04-22T07:13:51.953Z,74.40
2023-04-22T07:16:19.625Z,72.80
2023-04-22T07:18:47.352Z,72.40
2023-04-22T07:21:14.886Z,71.10
2023-04-22T07:23:42.520Z,70.00
2023-04-22T07:26:09.864Z,69.60
2023-04-22T07:28:37.444Z,70.40
2023-04-22T07:31:05.217Z,69.60
2023-04-22T07:33:32.650Z,69.70
2023-04-22T07:36:00.488Z,68.90
2023-04-22T07:38:28.046Z,68.70
2023-04-22T07:40:55.316Z,68.40
2023-04-22T07:43:22.629Z,68.30
2023-04-22T07:45:50.122Z,67.80
2023-04-22T07:48:17.747Z,66.80
2023-04-22T07:50:45.102Z,67.10
2023-04-22T07:53:13.380Z,66.80
2023-04-22T07:55:41.273Z,66.40
2023-04-22T07:58:08.550Z,66.60
2023-04-22T08:00:36.083Z,66.80
2023-04-22T08:03:04.081Z,66.40
2023-04-22T08:05:31.526Z,66.40
2023-04-22T08:08:02.444Z,65.90
2023-04-22T08:10:29.871Z,65.20
2023-04-22T08:13:01.311Z,65.40
2023-04-22T08:15:28.978Z,65.00
2023-04-22T08:17:56.868Z,65.00
2023-04-22T08:20:25.576Z,65.20
2023-04-22T08:22:57.218Z,65.70
2023-04-22T08:25:24.698Z,65.30
2023-04-22T08:27:52.022Z,65.00
2023-04-22T08:30:19.813Z,64.60
2023-04-22T08:32:49.855Z,64.50
2023-04-22T08:35:17.312Z,64.20
2023-04-22T08:37:44.722Z,64.40
2023-04-22T08:40:12.074Z,63.90
2023-04-22T08:42:40.372Z,64.00
2023-04-22T08:45:09.954Z,63.20
2023-04-22T08:47:38.759Z,63.10
2023-04-22T08:50:07.312Z,61.70
2023-04-22T08:52:35.125Z,62.20
2023-04-22T08:55:02.551Z,61.80
2023-04-22T08:57:30.344Z,61.80
2023-04-22T08:59:57.862Z,61.80
2023-04-22T09:02:26.638Z,61.80
2023-04-22T09:04:54.291Z,61.00
2023-04-22T09:07:28.651Z,60.20
2023-04-22T09:09:56.634Z,60.20
2023-04-22T09:12:25.744Z,59.50
2023-04-22T09:14:54.584Z,59.70
2023-04-22T09:17:33.473Z,59.00
2023-04-22T09:20:07.194Z,59.30
2023-04-22T09:22:49.100Z,58.70
2023-04-22T09:25:21.452Z,59.00
2023-04-22T09:27:53.308Z,57.70
2023-04-22T09:30:36.567Z,58.10
2023-04-22T09:33:05.941Z,57.60
2023-04-22T09:35:35.450Z,58.40
2023-04-22T09:38:04.630Z,57.90
2023-04-22T09:40:32.539Z,57.90
2023-04-22T09:43:03.278Z,57.00
2023-04-22T09:45:38.371Z,55.60
2023-04-22T09:48:14.726Z,55.20
2023-04-22T09:50:50.193Z,55.60
2023-04-22T09:53:20.449Z,55.10
2023-04-22T09:55:51.002Z,54.00
2023-04-22T09:58:20.888Z,54.20
2023-04-22T10:00:54.305Z,54.20
2023-04-22T10:03:22.197Z,53.70
2023-04-22T10:05:49.612Z,53.50
2023-04-22T10:08:17.339Z,54.10
2023-04-22T10:10:44.898Z,53.90
2023-04-22T10:13:12.547Z,53.80
2023-04-22T10:15:48.478Z,53.80
2023-04-22T10:18:21.461Z,53.90
2023-04-22T10:20:50.104Z,54.20
2023-04-22T10:23:23.528Z,54.80
2023-04-22T10:25:54.314Z,53.90
2023-04-22T10:28:23.519Z,54.70
2023-04-22T10:30:51.152Z,54.70
2023-04-22T10:33:21.579Z,53.70
2023-04-22T10:36:11.000Z,53.60
2023-04-22T10:39:03.342Z,54.60
2023-04-22T10:41:33.297Z,54.30
2023-04-22T10:44:08.111Z,53.60
2023-04-22T10:46:37.573Z,54.60
2023-04-22T10:49:10.429Z,54.70
2023-04-22T10:51:52.690Z,53.90
2023-04-22T10:54:31.565Z,52.90
2023-04-22T10:57:14.795Z,52.90
2023-04-22T10:59:52.292Z,53.10
2023-04-22T11:02:20.464Z,52.80
2023-04-22T11:04:48.501Z,52.50
2023-04-22T11:07:20.752Z,52.60
2023-04-22T11:09:52.002Z,52.20
2023-04-22T11:12:42.162Z,51.60
2023-04-22T11:15:12.509Z,51.60
2023-04-22T11:17:43.248Z,52.10
2023-04-22T11:20:12.987Z,51.60
2023-04-22T11:22:43.529Z,51.50
2023-04-22T11:25:11.605Z,52.20
2023-04-22T11:27:40.655Z,50.60
2023-04-22T11:30:13.436Z,49.60
2023-04-22T11:32:45.192Z,49.70
2023-04-22T11:35:24.635Z,50.00
2023-04-22T11:37:56.016Z,50.10
2023-04-22T11:42:56.701Z,49.20
2023-04-22T11:45:24.462Z,49.70
2023-04-22T11:47:52.896Z,49.80
2023-04-22T11:50:41.542Z,48.90
2023-04-22T11:53:16.829Z,50.10
2023-04-22T11:55:46.738Z,50.20
2023-04-22T11:58:18.749Z,49.40
2023-04-22T12:00:51.258Z,49.40
2023-04-22T12:03:31.537Z,49.10
2023-04-22T12:06:06.266Z,48.80
2023-04-22T12:08:42.169Z,49.10
2023-04-22T12:11:11.269Z,48.50
2023-04-22T12:13:38.598Z,48.20
2023-04-22T12:16:18.117Z,48.00
2023-04-22T12:18:50.348Z,48.40
2023-04-22T12:21:20.565Z,47.90
2023-04-22T12:23:50.591Z,48.20
2023-04-22T12:26:19.865Z,48.70
2023-04-22T12:28:47.782Z,50.00
2023-04-22T12:31:15.556Z,49.70
2023-04-22T12:33:44.632Z,48.90
2023-04-22T12:36:12.094Z,48.70
2023-04-22T12:38:39.920Z,48.50
2023-04-22T12:41:08.298Z,47.70
2023-04-22T12:43:36.850Z,47.50
2023-04-22T12:46:06.530Z,46.60
2023-04-22T12:48:34.333Z,46.70
2023-04-22T12:51:01.651Z,47.10
2023-04-22T12:53:29.279Z,47.80
2023-04-22T12:55:56.978Z,47.40
2023-04-22T12:58:24.930Z,47.40
2023-04-22T13:00:52.171Z,47.10
2023-04-22T13:03:20.121Z,46.70
2023-04-22T13:05:47.720Z,47.50
2023-04-22T13:08:15.171Z,47.10
2023-04-22T13:10:42.467Z,46.00
2023-04-22T13:13:18.386Z,45.50
2023-04-22T13:15:47.872Z,46.20
2023-04-22T13:18:16.969Z,46.40
2023-04-22T13:20:44.842Z,46.40
2023-04-22T13:23:13.266Z,45.70
2023-04-22T13:25:40.697Z,45.30
2023-04-22T13:28:08.007Z,45.70
2023-04-22T13:30:36.032Z,46.10
2023-04-22T13:33:03.488Z,46.20
2023-04-22T13:35:31.409Z,45.90
2023-04-22T13:37:58.985Z,45.70
2023-04-22T13:40:27.339Z,46.00
2023-04-22T13:42:55.295Z,46.00
2023-04-22T13:45:22.767Z,45.50
2023-04-22T13:47:50.120Z,45.90
2023-04-22T13:50:17.867Z,46.00
2023-04-22T13:52:45.496Z,45.90
2023-04-22T13:55:13.056Z,45.60
2023-04-22T13:57:40.436Z,46.20
2023-04-22T14:00:09.415Z,46.60
2023-04-22T14:02:39.998Z,46.60
2023-04-22T14:05:07.695Z,46.90
2023-04-22T14:07:34.953Z,46.50
2023-04-22T14:10:02.279Z,46.40
2023-04-22T14:12:29.542Z,45.90
2023-04-22T14:14:56.935Z,46.30
2023-04-22T14:17:24.210Z,46.20
2023-04-22T14:19:52.683Z,47.20
2023-04-22T14:22:20.125Z,47.60
2023-04-22T14:24:48.718Z,48.00
2023-04-22T14:27:16.346Z,47.60
2023-04-22T14:29:44.010Z,47.00
2023-04-22T14:32:11.702Z,47.20
2023-04-22T14:34:39.568Z,47.40
2023-04-22T14:37:07.136Z,47.00
2023-04-22T14:39:34.511Z,47.10
2023-04-22T14:42:02.526Z,47.30
2023-04-22T14:44:29.871Z,46.90
2023-04-22T14:46:57.607Z,47.20
2023-04-22T14:49:25.079Z,47.10
2023-04-22T14:51:57.846Z,47.20
2023-04-22T14:54:25.910Z,46.60
2023-04-22T14:56:55.403Z,47.00
2023-04-22T14:59:22.736Z,46.90
2023-04-22T15:01:51.360Z,47.20
2023-04-22T15:04:19.519Z,47.60
2023-04-22T15:06:46.888Z,47.00
2023-04-22T15:09:14.395Z,47.30
2023-04-22T15:11:41.638Z,47.60
2023-04-22T15:14:08.937Z,46.90
2023-04-22T15:16:36.399Z,46.60
2023-04-22T15:19:03.721Z,46.90
2023-04-22T15:21:31.973Z,47.20
2023-04-22T15:23:59.453Z,47.00
2023-04-22T15:26:26.944Z,46.80
2023-04-22T15:28:54.428Z,47.40
2023-04-22T15:31:21.762Z,47.20
2023-04-22T15:33:49.623Z,47.50
2023-04-22T15:36:19.970Z,47.60
2023-04-22T15:38:47.597Z,47.40
2023-04-22T15:41:15.821Z,47.60
2023-04-22T15:43:43.109Z,47.60
2023-04-22T15:46:10.533Z,47.90
2023-04-22T15:48:37.934Z,48.00
2023-04-22T15:51:05.191Z,48.40
2023-04-22T15:53:32.887Z,48.10
2023-04-22T15:56:00.178Z,47.90
2023-04-22T15:58:29.048Z,47.70
2023-04-22T16:01:11.457Z,48.10
2023-04-22T16:03:45.256Z,48.50
2023-04-22T16:06:12.795Z,48.20
2023-04-22T16:08:40.477Z,48.70
2023-04-22T16:11:07.866Z,48.60
2023-04-22T16:13:35.282Z,48.80
2023-04-22T16:16:03.121Z,48.70
2023-04-22T16:18:30.722Z,48.50
2023-04-22T16:20:59.980Z,48.80
2023-04-22T16:23:27.948Z,49.10
2023-04-22T16:25:55.520Z,49.10
2023-04-22T16:28:22.848Z,49.00
2023-04-22T16:30:50.304Z,49.20
2023-04-22T16:33:17.609Z,49.50
2023-04-22T16:35:45.069Z,50.50
2023-04-22T16:38:12.441Z,50.20
2023-04-22T16:40:40.257Z,49.90
2023-04-22T16:43:07.815Z,50.00
2023-04-22T16:45:35.329Z,49.90
2023-04-22T16:48:02.628Z,50.10
2023-04-22T16:50:29.931Z,50.10
2023-04-22T16:52:57.289Z,50.80
2023-04-22T16:55:24.870Z,50.30
2023-04-22T16:57:52.269Z,50.30
2023-04-22T17:00:20.983Z,50.30
2023-04-22T17:02:48.467Z,50.60
2023-04-22T17:05:16.030Z,50.90
2023-04-22T17:07:43.379Z,51.30
2023-04-22T17:10:11.403Z,51.60
2023-04-22T17:12:38.901Z,51.80
2023-04-22T17:15:06.965Z,52.00
2023-04-22T17:17:34.355Z,52.20
2023-04-22T17:20:02.494Z,52.30
2023-04-22T17:22:29.889Z,52.50
2023-04-22T17:24:58.721Z,52.60
2023-04-22T17:27:27.011Z,52.70
2023-04-22T17:29:54.408Z,52.80
2023-04-22T17:32:21.804Z,53.00
2023-04-22T17:34:49.115Z,53.00
2023-04-22T17:37:16.572Z,53.70
2023-04-22T17:39:43.848Z,53.20
2023-04-22T17:42:11.764Z,53.40
2023-04-22T17:44:39.361Z,53.60
2023-04-22T17:47:07.681Z,53.80
2023-04-22T17:49:35.383Z,54.00
2023-04-22T17:52:02.768Z,54.20
2023-04-22T17:54:30.013Z,54.40
2023-04-22T17:56:57.533Z,54.60
2023-04-22T17:59:24.976Z,54.70
2023-04-22T18:01:52.285Z,55.00
2023-04-22T18:04:20.010Z,55.10
2023-04-22T18:06:47.341Z,55.30
2023-04-22T18:09:14.604Z,55.50
2023-04-22T18:11:42.324Z,55.70
2023-04-22T18:14:09.935Z,55.80
2023-04-22T18:16:37.257Z,55.90
2023-04-22T18:19:06.753Z,56.10
2023-04-22T18:21:34.521Z,56.30
2023-04-22T18:24:02.698Z,56.40
2023-04-22T18:26:30.212Z,56.50
2023-04-22T18:28:57.851Z,56.60
2023-04-22T18:31:25.781Z,56.70
2023-04-22T18:33:53.352Z,57.00
2023-04-22T18:36:21.394Z,57.00
2023-04-22T18:38:48.641Z,57.10
2023-04-22T18:41:16.582Z,57.30
2023-04-22T18:43:43.829Z,57.30
2023-04-22T18:46:11.147Z,57.50
2023-04-22T18:48:38.436Z,57.50
2023-04-22T18:51:06.187Z,57.70
2023-04-22T18:53:34.435Z,57.90
2023-04-22T18:56:02.117Z,58.00
2023-04-22T18:58:29.449Z,58.10
2023-04-22T19:00:56.982Z,58.30
2023-04-22T19:03:24.448Z,58.50
2023-04-22T19:05:51.814Z,58.50
2023-04-22T19:08:19.045Z,58.60
2023-04-22T19:10:46.687Z,58.80
2023-04-22T19:13:28.467Z,58.80
2023-04-22T19:15:58.259Z,58.90
2023-04-22T19:18:26.203Z,59.10
2023-04-22T19:20:53.596Z,59.20
2023-04-22T19:23:21.599Z,59.40
2023-04-22T19:25:48.858Z,59.50
2023-04-22T19:28:16.151Z,59.60
2023-04-22T19:30:43.494Z,59.80
2023-04-22T19:33:11.092Z,60.00
2023-04-22T19:35:38.390Z,60.00
2023-04-22T19:38:06.000Z,60.10
2023-04-22T19:40:36.771Z,60.30
2023-04-22T19:43:04.480Z,60.50
2023-04-22T19:45:32.139Z,60.60
2023-04-22T19:47:59.680Z,60.90
2023-04-22T19:50:27.748Z,61.00
2023-04-22T19:53:04.845Z,61.20
2023-04-22T19:55:36.604Z,61.40
2023-04-22T19:58:04.592Z,61.40
2023-04-22T20:00:33.071Z,61.70
2023-04-22T20:03:00.750Z,61.80
2023-04-22T20:05:28.579Z,61.80
2023-04-22T20:07:59.932Z,61.90
2023-04-22T20:10:27.775Z,62.10
2023-04-22T20:12:55.388Z,62.30
2023-04-22T20:15:23.057Z,62.40
2023-04-22T20:17:51.614Z,62.40
2023-04-22T20:20:19.495Z,62.40
2023-04-22T20:22:48.527Z,62.50
2023-04-22T20:25:19.899Z,62.60
2023-04-22T20:27:48.241Z,62.60
2023-04-22T20:30:15.914Z,62.70
2023-04-22T20:32:43.373Z,62.80
2023-04-22T20:35:14.984Z,62.90
2023-04-22T20:37:44.391Z,62.90
2023-04-22T20:40:14.751Z,63.20
2023-04-22T20:42:42.132Z,63.20
2023-04-22T20:45:14.874Z,63.40
2023-04-22T20:47:42.845Z,63.60
2023-04-22T20:50:10.924Z,63.60
2023-04-22T20:52:39.135Z,63.80
2023-04-22T20:55:07.099Z,64.00
2023-04-22T20:57:34.539Z,64.00
2023-04-22T21:00:01.861Z,64.30
2023-04-22T21:02:30.231Z,64.60
2023-04-22T21:04:58.896Z,64.90
2023-04-22T21:07:30.590Z,65.20
2023-04-22T21:09:58.272Z,65.40
2023-04-22T21:12:25.836Z,65.60
2023-04-22T21:14:53.713Z,65.60
2023-04-22T21:17:25.512Z,65.80
2023-04-22T21:19:56.860Z,66.00
2023-04-22T21:22:25.341Z,66.10
2023-04-22T21:24:53.812Z,66.20
2023-04-22T21:27:22.069Z,67.00
2023-04-22T21:29:50.233Z,66.40
2023-04-22T21:32:20.120Z,66.40
2023-04-22T21:34:47.629Z,66.50
2023-04-22T21:37:15.034Z,66.70
2023-04-22T21:39:42.422Z,66.90
2023-04-22T21:42:09.732Z,67.00
2023-04-22T21:44:38.203Z,67.10
2023-04-22T21:47:06.423Z,67.10
2023-04-22T21:49:33.745Z,67.20
2023-04-22T21:52:01.184Z,67.30
2023-04-22T21:54:28.842Z,67.50
2023-04-22T21:56:57.637Z,67.50
2023-04-22T21:59:25.163Z,67.80
2023-04-22T22:01:53.001Z,67.80
2023-04-22T22:04:20.595Z,67.90
2023-04-22T22:06:49.055Z,67.90
2023-04-22T22:09:16.730Z,67.90
2023-04-22T22:11:43.987Z,68.00
2023-04-22T22:14:11.397Z,68.10
2023-04-22T22:16:39.262Z,68.10
2023-04-22T22:19:06.584Z,68.20
2023-04-22T22:21:33.965Z,68.10
2023-04-22T22:24:01.228Z,68.40
2023-04-22T22:26:29.206Z,68.30
2023-04-22T22:28:56.693Z,68.40
2023-04-22T22:31:24.199Z,68.40
2023-04-22T22:33:51.485Z,68.50
2023-04-22T22:36:19.069Z,68.60
2023-04-22T22:38:46.395Z,68.60
2023-04-22T22:41:14.125Z,68.70
2023-04-22T22:43:41.384Z,68.70
2023-04-22T22:46:08.815Z,68.80
2023-04-22T22:48:36.983Z,68.90
2023-04-22T22:51:04.406Z,68.80
2023-04-22T22:53:33.811Z,68.90
2023-04-22T22:56:01.057Z,69.00
2023-04-22T22:58:28.719Z,69.00
2023-04-22T23:00:56.314Z,69.10
2023-04-22T23:03:23.757Z,69.30
2023-04-22T23:05:51.100Z,69.40
2023-04-22T23:08:18.453Z,69.50
2023-04-22T23:10:45.869Z,69.60
2023-04-22T23:13:13.301Z,69.70
2023-04-22T23:15:40.995Z,70.00
2023-04-22T23:18:09.765Z,70.00
2023-04-22T23:20:37.761Z,70.10
2023-04-22T23:23:05.674Z,70.20
2023-04-22T23:25:33.514Z,70.40
2023-04-22T23:28:01.741Z,71.10
2023-04-22T23:30:29.555Z,70.40
2023-04-22T23:32:57.784Z,70.50
2023-04-22T23:35:27.568Z,70.60
2023-04-22T23:37:56.596Z,70.60
2023-04-22T23:40:23.833Z,70.70
2023-04-22T23:42:51.097Z,70.80
2023-04-22T23:45:18.378Z,70.90
2023-04-22T23:47:45.931Z,70.90
2023-04-22T23:50:14.464Z,70.90
2023-04-22T23:52:42.790Z,70.90
2023-04-22T23:55:13.059Z,71.00
2023-04-22T23:57:40.631Z,71.00
